createdAt,value
2022-08-07T00:07:20.815Z,69
2022-08-07T00:22:40.550Z,69.5
2022-08-07T00:30:48.664Z,68.5
2022-08-07T01:09:36.131Z,66
2022-08-07T01:24:55.756Z,65
2022-08-07T01:48:12.168Z,64.5
2022-08-07T01:56:08.946Z,64.5
2022-08-07T02:27:10.825Z,65.5
2022-08-07T02:34:56.316Z,66
2022-08-07T03:13:21.271Z,67
2022-08-07T03:21:06.795Z,66.5
2022-08-07T03:52:08.810Z,66
2022-08-07T04:07:51.114Z,65.5
2022-08-07T04:31:18.852Z,65.5
2022-08-07T04:54:35.333Z,65.5
2022-08-07T05:17:51.788Z,65
2022-08-07T05:33:02.312Z,65
2022-08-07T05:56:39.153Z,64.5
2022-08-07T06:19:44.228Z,64
2022-08-07T06:35:15.146Z,65
2022-08-07T06:50:34.776Z,65
2022-08-07T07:21:59.195Z,64.5
2022-08-07T07:44:52.882Z,62.5
2022-08-07T07:52:49.606Z,62.5
2022-08-07T08:16:05.683Z,58.5
2022-08-07T08:47:07.639Z,55.5
2022-08-07T08:54:52.207Z,54.5
2022-08-07T09:18:19.361Z,53.5
2022-08-07T09:33:27.264Z,52.5
2022-08-07T10:04:39.479Z,49.5
2022-08-07T10:27:43.658Z,47
2022-08-07T10:35:28.826Z,47
2022-08-07T11:06:40.635Z,46
2022-08-07T11:29:55.862Z,43.5
2022-08-07T11:45:14.682Z,43.5
2022-08-07T12:00:56.076Z,42.5
2022-08-07T12:16:37.560Z,41.5
2022-08-07T12:31:45.231Z,43.5
2022-08-07T12:47:15.451Z,43
2022-08-07T13:10:30.642Z,40.5
2022-08-07T13:26:00.722Z,40
2022-08-07T13:49:14.079Z,18
2022-08-07T14:12:37.994Z,16
2022-08-07T14:27:55.121Z,16
2022-08-07T14:59:03.231Z,16
2022-08-07T15:14:20.337Z,16.5
2022-08-07T15:22:15.938Z,18
2022-08-07T15:45:28.979Z,19
2022-08-07T16:16:26.955Z,22
2022-08-07T16:32:07.512Z,22.5
2022-08-07T17:02:43.858Z,25.5
2022-08-07T17:10:39.951Z,26
2022-08-07T17:26:09.579Z,26.5
2022-08-07T17:49:39.348Z,28.5
2022-08-07T18:12:27.633Z,32
2022-08-07T18:28:09.084Z,36.5
2022-08-07T18:51:13.284Z,41.5
2022-08-07T19:14:28.978Z,43
2022-08-07T19:30:10.802Z,43
2022-08-07T20:08:45.974Z,48
2022-08-07T20:24:39.287Z,52
2022-08-07T20:39:47.485Z,55
2022-08-07T20:55:40.772Z,55.5
2022-08-07T21:26:19.776Z,60.5
2022-08-07T22:05:06.887Z,59
2022-08-07T22:21:00.376Z,59.5
2022-08-07T22:51:50.863Z,60.5
2022-08-07T23:07:33.122Z,61.5
2022-08-07T23:53:43.471Z,61
